Malone, Alabama
Current Conditions -  °F | °C
As of 7:53 AM on Friday 31 Oct 2014 (Local Time) from KANB Reporting Station
Broken Clouds Broken Clouds  
Wind Chill: 42°   Ceiling: 11000
Heat Index: 42°   Visibility: 10mi
Dew Point: 41°   Wind: 0mph
Humidity: 96%   Direction: NA
Pressure: 30"   Gusts: NA
Location:  33.2829°N, 85.491°W
Report Text: KANB 311253Z AUTO 00000KT 10SM BKN110 06/05 A3000 RMK AO2 SLP165 T00560050
Loading
Personal Weather Stations






























Interactive Weather Map
Tropical Storm Tracking
New forecast layout! Learn more

10-Day Weather Forecast

Advertisements
Track Severe Weather on mobile